createdAt,value
2022-12-03T00:01:21.212Z,10.20
2022-12-03T00:03:49.208Z,11.00
2022-12-03T00:06:17.983Z,10.98
2022-12-03T00:08:45.459Z,11.30
2022-12-03T00:11:13.139Z,10.60
2022-12-03T00:13:40.472Z,13.93
2022-12-03T00:16:08.629Z,11.18
2022-12-03T00:18:36.353Z,11.27
2022-12-03T00:21:04.300Z,11.93
2022-12-03T00:23:33.973Z,12.40
2022-12-03T00:26:05.075Z,12.68
2022-12-03T00:28:32.736Z,11.60
2022-12-03T00:31:00.994Z,11.70
2022-12-03T00:33:28.305Z,12.65
2022-12-03T00:35:56.026Z,11.95
2022-12-03T00:38:23.351Z,11.65
2022-12-03T00:40:51.108Z,12.38
2022-12-03T00:43:18.660Z,13.35
2022-12-03T00:45:46.334Z,10.85
2022-12-03T00:48:13.934Z,10.68
2022-12-03T00:50:41.495Z,12.18
2022-12-03T00:53:08.847Z,12.15
2022-12-03T00:55:36.376Z,11.35
2022-12-03T00:58:03.875Z,10.27
2022-12-03T01:00:31.431Z,11.60
2022-12-03T01:02:58.677Z,10.45
2022-12-03T01:05:26.485Z,10.93
2022-12-03T01:07:53.823Z,10.93
2022-12-03T01:10:21.742Z,11.55
2022-12-03T01:12:49.185Z,11.00
2022-12-03T01:15:17.230Z,12.13
2022-12-03T01:17:44.627Z,10.52
2022-12-03T01:20:14.644Z,11.48
2022-12-03T01:22:42.205Z,11.73
2022-12-03T01:25:10.461Z,11.25
2022-12-03T01:27:37.760Z,11.90
2022-12-03T01:30:06.711Z,11.50
2022-12-03T01:32:34.272Z,11.35
2022-12-03T01:35:02.109Z,11.15
2022-12-03T01:37:29.772Z,10.52
2022-12-03T01:39:57.594Z,10.15
2022-12-03T01:42:32.004Z,10.18
2022-12-03T01:45:01.077Z,11.68
2022-12-03T01:47:32.228Z,11.75
2022-12-03T01:50:11.229Z,10.52
2022-12-03T01:52:39.676Z,11.57
2022-12-03T01:55:14.865Z,11.70
2022-12-03T01:57:42.436Z,11.23
2022-12-03T02:00:17.926Z,11.65
2022-12-03T02:02:46.987Z,10.90
2022-12-03T02:05:19.771Z,10.40
2022-12-03T02:07:48.331Z,11.32
2022-12-03T02:10:18.405Z,10.75
2022-12-03T02:13:06.396Z,11.10
2022-12-03T02:15:39.266Z,10.98
2022-12-03T02:18:09.118Z,10.60
2022-12-03T02:20:49.143Z,10.68
2022-12-03T02:23:50.829Z,10.70
2022-12-03T02:26:18.976Z,11.85
2022-12-03T02:28:46.466Z,10.98
2022-12-03T02:31:14.382Z,10.65
2022-12-03T02:33:42.005Z,14.40
2022-12-03T02:36:10.192Z,12.02
2022-12-03T02:38:37.986Z,12.02
2022-12-03T02:41:10.168Z,12.68
2022-12-03T02:43:39.051Z,13.48
2022-12-03T02:46:09.003Z,12.85
2022-12-03T02:48:40.015Z,13.40
2022-12-03T02:51:10.694Z,13.73
2022-12-03T02:53:45.736Z,12.20
2022-12-03T02:56:18.317Z,11.98
2022-12-03T02:58:48.640Z,11.93
2022-12-03T03:01:17.295Z,12.52
2022-12-03T03:03:46.723Z,13.60
2022-12-03T03:06:15.840Z,13.65
2022-12-03T03:08:43.900Z,13.05
2022-12-03T03:11:11.958Z,13.82
2022-12-03T03:13:40.107Z,13.02
2022-12-03T03:16:09.178Z,12.85
2022-12-03T03:18:37.370Z,12.70
2022-12-03T03:21:05.887Z,12.82
2022-12-03T03:23:33.832Z,13.25
2022-12-03T03:26:06.246Z,12.90
2022-12-03T03:28:38.810Z,11.80
2022-12-03T03:31:09.971Z,11.18
2022-12-03T03:33:41.509Z,12.35
2022-12-03T03:36:10.144Z,13.98
2022-12-03T03:38:39.236Z,12.48
2022-12-03T03:41:07.848Z,13.27
2022-12-03T03:43:37.329Z,12.32
2022-12-03T03:46:06.887Z,13.38
2022-12-03T03:48:35.629Z,14.23
2022-12-03T03:51:09.104Z,13.63
2022-12-03T03:53:45.813Z,12.60
2022-12-03T03:56:14.346Z,13.38
2022-12-03T03:58:41.671Z,13.73
2022-12-03T04:01:11.631Z,14.68
2022-12-03T04:03:39.661Z,13.82
2022-12-03T04:06:07.631Z,13.88
2022-12-03T04:08:35.094Z,13.52
2022-12-03T04:11:16.766Z,13.60
2022-12-03T04:13:44.108Z,13.40
2022-12-03T04:16:11.839Z,13.45
2022-12-03T04:18:45.306Z,13.10
2022-12-03T04:21:41.528Z,12.60
2022-12-03T04:24:11.461Z,12.70
2022-12-03T04:26:52.877Z,14.18
2022-12-03T04:29:21.306Z,13.02
2022-12-03T04:32:02.542Z,13.27
2022-12-03T04:34:44.660Z,14.43
2022-12-03T04:37:12.316Z,14.13
2022-12-03T04:39:40.525Z,14.25
2022-12-03T04:42:08.129Z,15.43
2022-12-03T04:44:36.846Z,15.98
2022-12-03T04:47:07.458Z,15.82
2022-12-03T04:49:37.071Z,14.10
2022-12-03T04:52:05.095Z,14.65
2022-12-03T04:54:33.222Z,13.82
2022-12-03T04:57:00.767Z,13.48
2022-12-03T04:59:43.775Z,15.65
2022-12-03T05:02:11.449Z,14.43
2022-12-03T05:04:39.333Z,14.93
2022-12-03T05:07:06.832Z,14.57
2022-12-03T05:09:34.547Z,14.10
2022-12-03T05:12:01.973Z,14.95
2022-12-03T05:14:29.988Z,15.13
2022-12-03T05:16:57.666Z,14.45
2022-12-03T05:19:45.712Z,15.05
2022-12-03T05:22:13.287Z,15.27
2022-12-03T05:24:41.358Z,15.23
2022-12-03T05:27:08.845Z,14.55
2022-12-03T05:29:36.325Z,14.75
2022-12-03T05:32:04.745Z,14.32
2022-12-03T05:34:32.454Z,15.43
2022-12-03T05:36:59.792Z,15.95
2022-12-03T05:39:27.777Z,13.75
2022-12-03T05:42:10.048Z,14.93
2022-12-03T05:44:37.560Z,16.00
2022-12-03T05:47:05.112Z,12.82
2022-12-03T05:49:33.106Z,14.20
2022-12-03T05:52:00.604Z,15.05
2022-12-03T05:54:29.325Z,16.05
2022-12-03T05:56:56.885Z,15.45
2022-12-03T05:59:24.581Z,15.82
2022-12-03T06:01:51.996Z,15.00
2022-12-03T06:04:19.996Z,15.20
2022-12-03T06:06:47.627Z,13.18
2022-12-03T06:09:15.317Z,14.13
2022-12-03T06:11:42.584Z,15.93
2022-12-03T06:14:10.261Z,16.05
2022-12-03T06:16:38.244Z,17.15
2022-12-03T06:19:05.849Z,14.73
2022-12-03T06:21:33.469Z,15.85
2022-12-03T06:24:01.575Z,12.98
2022-12-03T06:26:30.396Z,15.48
2022-12-03T06:28:58.210Z,13.45
2022-12-03T06:31:25.647Z,13.73
2022-12-03T06:33:53.510Z,15.05
2022-12-03T06:36:23.243Z,14.77
2022-12-03T06:38:51.335Z,14.70
2022-12-03T06:41:18.843Z,14.50
2022-12-03T06:43:46.685Z,14.70
2022-12-03T06:46:14.281Z,15.63
2022-12-03T06:48:41.820Z,14.98
2022-12-03T06:51:09.400Z,14.43
2022-12-03T06:53:37.127Z,15.10
2022-12-03T06:56:04.858Z,15.05
2022-12-03T06:58:32.608Z,15.65
2022-12-03T07:01:00.230Z,14.02
2022-12-03T07:03:30.069Z,14.52
2022-12-03T07:05:58.407Z,15.45
2022-12-03T07:08:26.549Z,15.05
2022-12-03T07:10:54.895Z,16.58
2022-12-03T07:13:23.761Z,14.13
2022-12-03T07:15:52.455Z,18.33
2022-12-03T07:18:20.068Z,16.02
2022-12-03T07:20:47.712Z,13.35
2022-12-03T07:23:15.474Z,16.83
2022-12-03T07:25:43.061Z,17.05
2022-12-03T07:28:10.785Z,15.48
2022-12-03T07:30:38.395Z,16.77
2022-12-03T07:33:06.195Z,13.68
2022-12-03T07:35:33.587Z,15.02
2022-12-03T07:38:02.044Z,14.98
2022-12-03T07:40:29.712Z,15.85
2022-12-03T07:42:57.496Z,13.70
2022-12-03T07:45:24.991Z,17.52
2022-12-03T07:47:52.545Z,14.85
2022-12-03T07:50:20.232Z,17.58
2022-12-03T07:52:48.065Z,15.80
2022-12-03T07:55:15.982Z,14.25
2022-12-03T07:57:43.831Z,15.63
2022-12-03T08:00:12.704Z,17.45
2022-12-03T08:02:40.504Z,14.93
2022-12-03T08:05:08.329Z,15.13
2022-12-03T08:07:36.257Z,17.08
2022-12-03T08:10:05.148Z,15.25
2022-12-03T08:12:41.816Z,17.35
2022-12-03T08:15:24.351Z,15.65
2022-12-03T08:17:56.497Z,15.32
2022-12-03T08:20:29.142Z,15.10
2022-12-03T08:22:57.711Z,17.02
2022-12-03T08:25:31.612Z,16.15
2022-12-03T08:28:13.125Z,15.85
2022-12-03T08:30:43.455Z,16.17
2022-12-03T08:33:33.733Z,15.82
2022-12-03T08:36:11.438Z,17.38
2022-12-03T08:38:43.703Z,14.60
2022-12-03T08:41:36.226Z,17.27
2022-12-03T08:44:23.956Z,17.25
2022-12-03T08:47:08.886Z,15.93
2022-12-03T08:49:37.439Z,16.58
2022-12-03T08:52:16.766Z,15.30
2022-12-03T08:54:53.171Z,14.55
2022-12-03T08:57:32.100Z,15.75
2022-12-03T09:00:18.736Z,17.55
2022-12-03T09:02:51.412Z,16.00
2022-12-03T09:05:23.505Z,16.08
2022-12-03T09:07:51.203Z,14.18
2022-12-03T09:10:18.970Z,15.70
2022-12-03T09:12:46.573Z,16.90
2022-12-03T09:15:14.222Z,17.10
2022-12-03T09:17:41.619Z,15.77
2022-12-03T09:20:10.482Z,18.77
2022-12-03T09:22:38.097Z,17.45
2022-12-03T09:25:06.684Z,16.60
2022-12-03T09:27:34.007Z,16.17
2022-12-03T09:30:01.959Z,16.70
2022-12-03T09:32:29.626Z,17.17
2022-12-03T09:34:58.016Z,17.05
2022-12-03T09:37:25.352Z,17.90
2022-12-03T09:39:53.158Z,17.20
2022-12-03T09:42:20.866Z,17.42
2022-12-03T09:44:48.807Z,15.77
2022-12-03T09:47:16.160Z,16.67
2022-12-03T09:49:44.301Z,18.02
2022-12-03T09:52:19.229Z,17.33
2022-12-03T09:54:47.707Z,18.60
2022-12-03T09:57:17.002Z,16.98
2022-12-03T09:59:45.319Z,16.77
2022-12-03T10:02:24.073Z,16.20
2022-12-03T10:04:53.680Z,16.35
2022-12-03T10:07:21.909Z,16.52
2022-12-03T10:09:49.688Z,17.65
2022-12-03T10:12:23.455Z,16.77
2022-12-03T10:14:53.399Z,17.80
2022-12-03T10:17:21.476Z,16.10
2022-12-03T10:19:49.548Z,16.38
2022-12-03T10:22:17.096Z,15.23
2022-12-03T10:24:45.247Z,17.15
2022-12-03T10:27:24.752Z,17.67
2022-12-03T10:29:59.647Z,18.25
2022-12-03T10:32:41.052Z,18.77
2022-12-03T10:35:21.461Z,17.95
2022-12-03T10:38:08.446Z,15.57
2022-12-03T10:40:38.368Z,16.33
2022-12-03T10:43:20.902Z,17.08
2022-12-03T10:46:11.554Z,17.00
2022-12-03T10:48:39.386Z,16.65
2022-12-03T10:51:22.199Z,18.80
2022-12-03T10:53:50.838Z,18.17
2022-12-03T10:56:25.242Z,17.42
2022-12-03T10:58:52.799Z,17.92
2022-12-03T11:01:23.268Z,19.02
2022-12-03T11:03:51.721Z,17.23
2022-12-03T11:06:21.796Z,16.67
2022-12-03T11:08:57.105Z,16.75
2022-12-03T11:11:28.897Z,18.05
2022-12-03T11:14:00.400Z,18.58
2022-12-03T11:16:42.141Z,18.70
2022-12-03T11:19:13.032Z,16.95
2022-12-03T11:22:05.234Z,19.48
2022-12-03T11:24:35.611Z,16.58
2022-12-03T11:27:07.270Z,17.77
2022-12-03T11:32:39.457Z,18.42
2022-12-03T11:35:23.817Z,16.05
2022-12-03T11:37:51.737Z,18.65
2022-12-03T11:40:19.587Z,17.85
2022-12-03T11:42:48.025Z,17.58
2022-12-03T11:45:29.914Z,19.30
2022-12-03T11:48:11.649Z,18.70
2022-12-03T11:50:42.910Z,17.13
2022-12-03T11:53:31.907Z,19.73
2022-12-03T11:56:11.046Z,19.25
2022-12-03T11:58:42.489Z,17.85
2022-12-03T12:01:10.365Z,17.50
2022-12-03T12:03:49.344Z,18.95
2022-12-03T12:06:21.604Z,19.00
2022-12-03T12:08:52.224Z,17.90
2022-12-03T12:11:26.163Z,18.77
2022-12-03T12:14:00.144Z,19.42
2022-12-03T12:16:42.884Z,17.10
2022-12-03T12:19:27.579Z,18.08
2022-12-03T12:21:56.037Z,18.20
2022-12-03T12:24:47.183Z,17.35
2022-12-03T12:27:37.433Z,17.77
2022-12-03T12:30:16.806Z,17.85
2022-12-03T12:33:02.784Z,17.05
2022-12-03T12:35:32.963Z,17.15
2022-12-03T12:38:14.954Z,19.63
2022-12-03T12:40:45.939Z,17.98
2022-12-03T12:43:27.528Z,17.80
2022-12-03T12:45:57.059Z,20.25
2022-12-03T12:48:31.722Z,17.77
2022-12-03T12:51:15.036Z,19.10
2022-12-03T12:53:43.037Z,17.65
2022-12-03T12:56:30.750Z,20.30
2022-12-03T12:59:24.079Z,18.85
2022-12-03T13:01:52.384Z,19.15
2022-12-03T13:04:24.590Z,18.48
2022-12-03T13:06:54.077Z,19.60
2022-12-03T13:09:27.266Z,19.20
2022-12-03T13:11:58.889Z,20.25
2022-12-03T13:14:36.734Z,19.92
2022-12-03T13:17:16.331Z,18.95
2022-12-03T13:19:49.369Z,19.08
2022-12-03T13:22:25.952Z,20.38
2022-12-03T13:24:56.501Z,21.27
2022-12-03T13:27:31.552Z,20.25
2022-12-03T13:30:08.760Z,19.65
2022-12-03T13:32:42.487Z,17.60
2022-12-03T13:35:17.503Z,19.20
2022-12-03T13:37:45.260Z,18.80
2022-12-03T13:40:28.435Z,18.98
2022-12-03T13:42:57.346Z,20.65
2022-12-03T13:45:33.854Z,19.75
2022-12-03T13:48:16.777Z,19.25
2022-12-03T13:50:46.193Z,20.88
2022-12-03T13:53:29.651Z,18.55
2022-12-03T13:56:25.235Z,19.50
2022-12-03T13:58:53.350Z,20.70
2022-12-03T14:01:21.014Z,18.50
2022-12-03T14:03:49.449Z,17.80
2022-12-03T14:06:17.073Z,20.48
2022-12-03T14:08:45.253Z,19.73
2022-12-03T14:11:32.926Z,20.48
2022-12-03T14:14:01.342Z,19.17
2022-12-03T14:16:29.741Z,18.70
2022-12-03T14:18:57.372Z,19.73
2022-12-03T14:21:25.128Z,19.30
2022-12-03T14:23:53.203Z,19.00
2022-12-03T14:26:20.740Z,20.73
2022-12-03T14:28:51.017Z,18.75
2022-12-03T14:31:18.402Z,19.50
2022-12-03T14:33:46.009Z,20.33
2022-12-03T14:36:13.449Z,20.08
2022-12-03T14:38:41.254Z,19.98
2022-12-03T14:41:33.092Z,21.58
2022-12-03T14:44:00.876Z,19.35
2022-12-03T14:46:28.483Z,20.10
2022-12-03T14:48:56.613Z,19.42
2022-12-03T14:51:24.056Z,19.83
2022-12-03T14:53:52.038Z,21.05
2022-12-03T14:56:19.722Z,20.20
2022-12-03T14:58:47.480Z,20.55
2022-12-03T15:01:15.400Z,21.08
2022-12-03T15:03:43.269Z,20.75
2022-12-03T15:06:10.606Z,29.83
2022-12-03T15:08:38.478Z,34.88
2022-12-03T15:11:06.307Z,34.30
2022-12-03T15:13:34.138Z,36.92
2022-12-03T15:16:03.100Z,36.97
2022-12-03T15:18:31.616Z,37.08
2022-12-03T15:21:00.232Z,39.38
2022-12-03T15:23:28.395Z,37.95
2022-12-03T15:25:55.947Z,39.08
2022-12-03T15:28:23.898Z,39.65
2022-12-03T15:30:51.770Z,42.15
2022-12-03T15:33:19.910Z,41.42
2022-12-03T15:35:47.766Z,37.65
2022-12-03T15:38:15.679Z,39.65
2022-12-03T15:40:43.321Z,37.53
2022-12-03T15:43:11.222Z,42.25
2022-12-03T15:45:38.780Z,40.97
2022-12-03T15:48:06.689Z,43.22
2022-12-03T15:50:39.719Z,42.63
2022-12-03T15:53:08.265Z,43.45
2022-12-03T15:55:35.737Z,42.03
2022-12-03T15:58:03.563Z,43.30
2022-12-03T16:00:31.102Z,43.58
2022-12-03T16:02:59.810Z,40.10
2022-12-03T16:05:28.396Z,42.15
2022-12-03T16:07:56.187Z,42.80
2022-12-03T16:10:23.698Z,44.67
2022-12-03T16:12:51.730Z,46.03
2022-12-03T16:15:25.142Z,43.30
2022-12-03T16:17:54.850Z,46.85
2022-12-03T16:20:22.402Z,45.50
2022-12-03T16:22:50.264Z,45.15
2022-12-03T16:25:17.747Z,41.65
2022-12-03T16:27:45.325Z,40.95
2022-12-03T16:30:13.851Z,45.25
2022-12-03T16:32:41.877Z,40.25
2022-12-03T16:35:09.584Z,42.58
2022-12-03T16:37:37.538Z,42.70
2022-12-03T16:40:06.127Z,44.53
2022-12-03T16:42:33.986Z,46.50
2022-12-03T16:45:04.199Z,27.02
2022-12-03T16:47:34.343Z,30.35
2022-12-03T16:50:12.974Z,24.77
2022-12-03T16:52:46.992Z,23.85
2022-12-03T16:55:14.392Z,24.42
2022-12-03T16:57:42.353Z,26.25
2022-12-03T17:00:10.318Z,28.40
2022-12-03T17:02:38.219Z,24.83
2022-12-03T17:05:06.254Z,26.27
2022-12-03T17:07:34.750Z,25.98
2022-12-03T17:10:02.637Z,24.45
2022-12-03T17:12:54.124Z,24.10
2022-12-03T17:15:18.440Z,24.55
2022-12-03T17:17:48.609Z,25.35
2022-12-03T17:20:17.571Z,26.30
2022-12-03T17:22:46.714Z,23.83
2022-12-03T17:25:14.209Z,25.25
2022-12-03T17:27:45.080Z,26.55
2022-12-03T17:30:13.583Z,24.65
2022-12-03T17:32:42.066Z,25.75
2022-12-03T17:35:11.459Z,25.08
2022-12-03T17:37:40.828Z,24.55
2022-12-03T17:40:12.058Z,26.33
2022-12-03T17:42:40.175Z,25.67
2022-12-03T17:45:08.435Z,24.13
2022-12-03T17:47:36.273Z,25.75
2022-12-03T17:50:04.253Z,25.15
2022-12-03T17:52:32.199Z,25.23
2022-12-03T17:55:11.228Z,24.95
2022-12-03T17:57:41.499Z,26.02
2022-12-03T18:00:10.568Z,24.75
2022-12-03T18:02:43.122Z,23.95
2022-12-03T18:05:11.188Z,26.73
2022-12-03T18:07:39.027Z,25.55
2022-12-03T18:10:07.421Z,26.45
2022-12-03T18:12:36.015Z,25.77
2022-12-03T18:15:04.197Z,26.55
2022-12-03T18:17:32.253Z,25.45
2022-12-03T18:19:59.848Z,24.63
2022-12-03T18:22:28.506Z,24.65
2022-12-03T18:24:56.063Z,25.75
2022-12-03T18:27:24.512Z,25.15
2022-12-03T18:29:54.716Z,25.60
2022-12-03T18:32:30.436Z,28.02
2022-12-03T18:34:58.395Z,26.88
2022-12-03T18:37:28.196Z,27.02
2022-12-03T18:39:56.826Z,25.25
2022-12-03T18:42:25.302Z,27.63
2022-12-03T18:44:55.619Z,26.35
2022-12-03T18:47:26.657Z,26.00
2022-12-03T18:49:55.594Z,28.00
2022-12-03T18:52:25.216Z,28.27
2022-12-03T18:54:54.743Z,26.30
2022-12-03T18:57:22.287Z,28.23
2022-12-03T18:59:49.809Z,25.75
2022-12-03T19:05:09.590Z,26.63
2022-12-03T19:07:51.348Z,26.70
2022-12-03T19:10:20.873Z,29.95
2022-12-03T19:12:48.911Z,30.17
2022-12-03T19:15:16.629Z,28.70
2022-12-03T19:17:49.413Z,28.08
2022-12-03T19:20:17.167Z,29.35
2022-12-03T19:22:45.218Z,28.13
2022-12-03T19:25:16.422Z,37.42
2022-12-03T19:27:45.046Z,47.72
2022-12-03T19:30:13.228Z,44.63
2022-12-03T19:32:41.249Z,48.85
2022-12-03T19:35:11.339Z,45.30
2022-12-03T19:37:39.152Z,48.05
2022-12-03T19:40:07.416Z,51.38
2022-12-03T19:42:35.280Z,53.33
2022-12-03T19:45:02.600Z,51.58
2022-12-03T19:47:32.726Z,50.35
2022-12-03T19:50:00.449Z,51.90
2022-12-03T19:52:28.134Z,52.90
2022-12-03T19:54:55.688Z,54.80
2022-12-03T19:57:23.746Z,51.90
2022-12-03T19:59:51.493Z,54.75
2022-12-03T20:02:19.543Z,57.80
2022-12-03T20:04:47.086Z,57.13
2022-12-03T20:07:15.066Z,33.10
2022-12-03T20:09:42.577Z,36.97
2022-12-03T20:12:10.295Z,34.20
2022-12-03T20:14:38.422Z,34.53
2022-12-03T20:17:06.541Z,33.08
2022-12-03T20:19:33.909Z,35.35
2022-12-03T20:22:02.953Z,34.63
2022-12-03T20:24:31.040Z,32.08
2022-12-03T20:26:59.052Z,32.78
2022-12-03T20:29:27.093Z,32.40
2022-12-03T20:31:55.078Z,32.75
2022-12-03T20:34:22.856Z,31.17
2022-12-03T20:36:50.722Z,32.88
2022-12-03T20:39:18.288Z,34.22
2022-12-03T20:41:46.299Z,33.08
2022-12-03T20:44:14.061Z,31.25
2022-12-03T20:46:42.052Z,32.80
2022-12-03T20:49:10.393Z,31.13
2022-12-03T20:51:38.148Z,29.85
2022-12-03T20:54:05.806Z,31.48
2022-12-03T20:56:36.850Z,30.38
2022-12-03T20:59:06.908Z,30.13
2022-12-03T21:01:36.439Z,29.77
2022-12-03T21:04:05.273Z,28.58
2022-12-03T21:06:35.884Z,31.38
2022-12-03T21:09:06.874Z,28.67
2022-12-03T21:11:40.829Z,29.52
2022-12-03T21:14:10.988Z,29.55
2022-12-03T21:17:07.193Z,28.27
2022-12-03T21:19:33.837Z,28.10
2022-12-03T21:22:01.765Z,28.77
2022-12-03T21:24:31.075Z,32.88
2022-12-03T21:26:58.831Z,31.95
2022-12-03T21:29:26.170Z,30.48
2022-12-03T21:31:53.906Z,26.92
2022-12-03T21:34:21.258Z,30.90
2022-12-03T21:36:48.846Z,28.83
2022-12-03T21:39:16.316Z,31.75
2022-12-03T21:42:33.271Z,27.80
2022-12-03T21:44:32.722Z,28.88
2022-12-03T21:47:09.454Z,28.85
2022-12-03T21:49:40.437Z,28.65
2022-12-03T21:52:08.009Z,30.80
2022-12-03T21:54:35.586Z,26.65
2022-12-03T21:57:04.316Z,32.35
2022-12-03T21:59:32.079Z,30.35
2022-12-03T22:01:59.669Z,30.55
2022-12-03T22:04:27.156Z,28.27
2022-12-03T22:06:55.228Z,31.02
2022-12-03T22:09:26.446Z,26.67
2022-12-03T22:11:57.029Z,30.38
2022-12-03T22:14:24.648Z,30.45
2022-12-03T22:16:52.311Z,27.80
2022-12-03T22:19:23.359Z,30.75
2022-12-03T22:24:19.706Z,29.85
2022-12-03T22:26:47.666Z,29.25
2022-12-03T22:29:15.398Z,28.77
2022-12-03T22:31:43.429Z,28.60
2022-12-03T22:34:10.708Z,30.13
2022-12-03T22:36:38.310Z,30.52
2022-12-03T22:39:05.877Z,30.67
2022-12-03T22:41:34.178Z,31.83
2022-12-03T22:44:01.773Z,28.35
2022-12-03T22:46:30.368Z,30.85
2022-12-03T22:49:01.823Z,28.75
2022-12-03T22:51:33.946Z,29.40
2022-12-03T22:54:02.098Z,29.42
2022-12-03T22:56:30.913Z,29.80
2022-12-03T22:58:59.962Z,30.13
2022-12-03T23:01:30.457Z,30.70
2022-12-03T23:03:58.791Z,30.67
2022-12-03T23:06:27.389Z,29.77
2022-12-03T23:08:55.359Z,28.15
2022-12-03T23:11:23.453Z,31.52
2022-12-03T23:13:50.982Z,30.88
2022-12-03T23:16:26.865Z,32.33
2022-12-03T23:18:55.444Z,30.33
2022-12-03T23:21:29.858Z,31.23
2022-12-03T23:23:59.417Z,29.95
2022-12-03T23:26:28.317Z,32.55
2022-12-03T23:28:56.304Z,31.20
2022-12-03T23:31:27.034Z,31.73
2022-12-03T23:33:55.872Z,30.55
2022-12-03T23:36:27.224Z,29.38
2022-12-03T23:38:54.968Z,30.67
2022-12-03T23:41:24.310Z,30.33
2022-12-03T23:43:52.625Z,29.38
2022-12-03T23:46:23.363Z,30.15
2022-12-03T23:48:52.009Z,30.73
2022-12-03T23:51:23.863Z,31.42
2022-12-03T23:53:53.350Z,31.88
2022-12-03T23:56:26.256Z,32.67
2022-12-03T23:58:53.651Z,33.05
